< < Back
Terminal Aerodrome Forecast


Current Version              Previous Versions:   1  2  3  4  5  6  7  8  9  

Terminal Aerodrome Forecast

990
FTUS42 KFFC 241121
TAFMCN
TAF
KMCN 241121Z 2412/2512 VRB03KT P6SM FEW080
     FM241400 26004KT P6SM SKC
     FM241800 22005KT P6SM FEW045
     FM250000 18003KT P6SM SKC=

Latest METAR

925
SAUS80 KWBC 250300 RRB
MTRMCN
METAR KMCN 250253Z AUTO 00000KT 10SM CLR 19/17 A3017 RMK AO2 SLP211
T01890167 53019 TSNO $


USA.gov is the U.S. government's official web portal to all federal, state and local government web resources and services.